sensor_id;sensor_type;location;lat;lon;timestamp;temperature;humidity
22532;DHT22;11432;46.924;7.114;2023-03-19T00:01:27;11.10;99.90
22532;DHT22;11432;46.924;7.114;2023-03-19T00:03:53;11.10;99.90
22532;DHT22;11432;46.924;7.114;2023-03-19T00:06:19;11.20;99.90
22532;DHT22;11432;46.924;7.114;2023-03-19T00:08:45;11.20;1.00
22532;DHT22;11432;46.924;7.114;2023-03-19T00:11:12;11.40;1.00
22532;DHT22;11432;46.924;7.114;2023-03-19T00:13:38;11.40;1.00
22532;DHT22;11432;46.924;7.114;2023-03-19T00:16:05;11.30;99.90
22532;DHT22;11432;46.924;7.114;2023-03-19T00:18:31;11.30;1.00
22532;DHT22;11432;46.924;7.114;2023-03-19T00:20:58;11.30;1.00
22532;DHT22;11432;46.924;7.114;2023-03-19T00:23:23;11.20;1.00
22532;DHT22;11432;46.924;7.114;2023-03-19T00:25:49;11.10;1.00
22532;DHT22;11432;46.924;7.114;2023-03-19T00:28:14;11.10;1.00
22532;DHT22;11432;46.924;7.114;2023-03-19T00:30:40;11.10;99.90
22532;DHT22;11432;46.924;7.114;2023-03-19T00:33:06;11.10;1.00
22532;DHT22;11432;46.924;7.114;2023-03-19T00:35:32;11.00;99.90
22532;DHT22;11432;46.924;7.114;2023-03-19T00:37:58;11.00;12.50
22532;DHT22;11432;46.924;7.114;2023-03-19T00:40:24;10.90;99.90
22532;DHT22;11432;46.924;7.114;2023-03-19T00:42:49;10.80;99.90
22532;DHT22;11432;46.924;7.114;2023-03-19T00:45:15;10.70;1.00
22532;DHT22;11432;46.924;7.114;2023-03-19T00:47:40;10.70;1.00
22532;DHT22;11432;46.924;7.114;2023-03-19T00:50:06;10.60;1.00
22532;DHT22;11432;46.924;7.114;2023-03-19T00:52:32;10.60;99.90
22532;DHT22;11432;46.924;7.114;2023-03-19T00:54:58;10.60;99.90
22532;DHT22;11432;46.924;7.114;2023-03-19T00:57:23;10.70;65.70
22532;DHT22;11432;46.924;7.114;2023-03-19T00:59:49;10.70;99.90
22532;DHT22;11432;46.924;7.114;2023-03-19T01:02:15;10.70;99.90
22532;DHT22;11432;46.924;7.114;2023-03-19T01:04:41;10.60;1.00
22532;DHT22;11432;46.924;7.114;2023-03-19T01:07:07;10.60;1.00
22532;DHT22;11432;46.924;7.114;2023-03-19T01:09:32;10.60;99.90
22532;DHT22;11432;46.924;7.114;2023-03-19T01:12:00;10.60;99.90
22532;DHT22;11432;46.924;7.114;2023-03-19T01:14:29;10.50;99.90
22532;DHT22;11432;46.924;7.114;2023-03-19T01:16:55;10.50;99.90
22532;DHT22;11432;46.924;7.114;2023-03-19T01:19:21;10.50;99.90
22532;DHT22;11432;46.924;7.114;2023-03-19T01:21:47;10.50;1.00
22532;DHT22;11432;46.924;7.114;2023-03-19T01:24:14;10.40;1.00
22532;DHT22;11432;46.924;7.114;2023-03-19T01:26:41;10.40;1.00
22532;DHT22;11432;46.924;7.114;2023-03-19T01:29:07;10.30;1.00
22532;DHT22;11432;46.924;7.114;2023-03-19T01:31:33;10.20;1.00
22532;DHT22;11432;46.924;7.114;2023-03-19T01:33:59;10.10;1.00
22532;DHT22;11432;46.924;7.114;2023-03-19T01:36:25;10.20;1.00
22532;DHT22;11432;46.924;7.114;2023-03-19T01:38:50;10.00;99.90
22532;DHT22;11432;46.924;7.114;2023-03-19T01:41:16;10.00;33.00
22532;DHT22;11432;46.924;7.114;2023-03-19T01:43:42;9.90;99.90
22532;DHT22;11432;46.924;7.114;2023-03-19T01:46:25;9.90;99.90
22532;DHT22;11432;46.924;7.114;2023-03-19T01:48:54;9.90;99.90
22532;DHT22;11432;46.924;7.114;2023-03-19T01:51:27;9.80;1.00
22532;DHT22;11432;46.924;7.114;2023-03-19T01:54:04;9.70;1.00
22532;DHT22;11432;46.924;7.114;2023-03-19T01:56:35;9.70;1.00
22532;DHT22;11432;46.924;7.114;2023-03-19T01:59:05;9.70;1.00
22532;DHT22;11432;46.924;7.114;2023-03-19T02:01:37;9.60;1.00
22532;DHT22;11432;46.924;7.114;2023-03-19T02:04:05;9.60;1.00
22532;DHT22;11432;46.924;7.114;2023-03-19T02:06:31;9.60;1.00
22532;DHT22;11432;46.924;7.114;2023-03-19T02:08:58;9.50;1.00
22532;DHT22;11432;46.924;7.114;2023-03-19T02:11:24;9.20;1.00
22532;DHT22;11432;46.924;7.114;2023-03-19T02:13:50;9.20;1.00
22532;DHT22;11432;46.924;7.114;2023-03-19T02:16:16;9.20;1.00
22532;DHT22;11432;46.924;7.114;2023-03-19T02:18:42;9.20;1.00
22532;DHT22;11432;46.924;7.114;2023-03-19T02:21:12;9.20;1.00
22532;DHT22;11432;46.924;7.114;2023-03-19T02:23:52;9.10;1.00
22532;DHT22;11432;46.924;7.114;2023-03-19T02:26:23;9.20;1.00
22532;DHT22;11432;46.924;7.114;2023-03-19T02:28:51;9.10;6.00
22532;DHT22;11432;46.924;7.114;2023-03-19T02:31:18;9.20;12.10
22532;DHT22;11432;46.924;7.114;2023-03-19T02:33:56;9.10;6.10
22532;DHT22;11432;46.924;7.114;2023-03-19T02:36:22;9.10;71.30
22532;DHT22;11432;46.924;7.114;2023-03-19T02:38:48;9.10;47.40
22532;DHT22;11432;46.924;7.114;2023-03-19T02:41:15;9.00;99.90
22532;DHT22;11432;46.924;7.114;2023-03-19T02:43:41;9.10;99.90
22532;DHT22;11432;46.924;7.114;2023-03-19T02:46:10;9.10;99.90
22532;DHT22;11432;46.924;7.114;2023-03-19T02:48:37;9.10;99.90
22532;DHT22;11432;46.924;7.114;2023-03-19T02:51:03;9.00;96.70
22532;DHT22;11432;46.924;7.114;2023-03-19T02:53:29;9.00;99.90
22532;DHT22;11432;46.924;7.114;2023-03-19T02:55:55;9.10;99.90
22532;DHT22;11432;46.924;7.114;2023-03-19T02:58:21;9.00;99.90
22532;DHT22;11432;46.924;7.114;2023-03-19T03:00:46;8.90;99.90
22532;DHT22;11432;46.924;7.114;2023-03-19T03:03:12;9.00;99.90
22532;DHT22;11432;46.924;7.114;2023-03-19T03:05:38;8.90;99.90
22532;DHT22;11432;46.924;7.114;2023-03-19T03:08:04;8.90;99.90
22532;DHT22;11432;46.924;7.114;2023-03-19T03:10:31;8.90;99.90
22532;DHT22;11432;46.924;7.114;2023-03-19T03:12:57;8.80;99.90
22532;DHT22;11432;46.924;7.114;2023-03-19T03:15:23;8.90;99.90
22532;DHT22;11432;46.924;7.114;2023-03-19T03:17:49;8.80;99.90
22532;DHT22;11432;46.924;7.114;2023-03-19T03:20:15;8.80;99.90
22532;DHT22;11432;46.924;7.114;2023-03-19T03:22:42;8.80;99.90
22532;DHT22;11432;46.924;7.114;2023-03-19T03:25:09;8.80;99.90
22532;DHT22;11432;46.924;7.114;2023-03-19T03:27:35;8.80;99.90
22532;DHT22;11432;46.924;7.114;2023-03-19T03:30:03;8.80;99.90
22532;DHT22;11432;46.924;7.114;2023-03-19T03:32:29;8.80;99.90
22532;DHT22;11432;46.924;7.114;2023-03-19T03:34:55;8.80;99.90
22532;DHT22;11432;46.924;7.114;2023-03-19T03:37:20;8.80;99.90
22532;DHT22;11432;46.924;7.114;2023-03-19T03:39:47;8.80;99.90
22532;DHT22;11432;46.924;7.114;2023-03-19T03:42:12;8.80;99.90
22532;DHT22;11432;46.924;7.114;2023-03-19T03:44:38;8.80;99.90
22532;DHT22;11432;46.924;7.114;2023-03-19T03:47:04;8.90;99.90
22532;DHT22;11432;46.924;7.114;2023-03-19T03:49:30;8.80;99.90
22532;DHT22;11432;46.924;7.114;2023-03-19T03:51:56;8.80;99.90
22532;DHT22;11432;46.924;7.114;2023-03-19T03:54:21;8.80;99.90
22532;DHT22;11432;46.924;7.114;2023-03-19T03:56:47;8.70;99.90
22532;DHT22;11432;46.924;7.114;2023-03-19T03:59:14;8.80;99.90
22532;DHT22;11432;46.924;7.114;2023-03-19T04:01:40;8.80;99.90
22532;DHT22;11432;46.924;7.114;2023-03-19T04:04:06;8.80;99.90
22532;DHT22;11432;46.924;7.114;2023-03-19T04:06:32;8.80;99.90
22532;DHT22;11432;46.924;7.114;2023-03-19T04:08:57;8.70;99.90
22532;DHT22;11432;46.924;7.114;2023-03-19T04:11:23;8.70;99.90
22532;DHT22;11432;46.924;7.114;2023-03-19T04:13:48;8.70;99.90
22532;DHT22;11432;46.924;7.114;2023-03-19T04:16:14;8.70;99.90
22532;DHT22;11432;46.924;7.114;2023-03-19T04:18:41;8.80;99.90
22532;DHT22;11432;46.924;7.114;2023-03-19T04:21:07;8.70;99.90
22532;DHT22;11432;46.924;7.114;2023-03-19T04:23:33;8.70;99.90
22532;DHT22;11432;46.924;7.114;2023-03-19T04:26:00;8.70;99.90
22532;DHT22;11432;46.924;7.114;2023-03-19T04:28:26;8.70;99.90
22532;DHT22;11432;46.924;7.114;2023-03-19T04:30:52;8.70;99.90
22532;DHT22;11432;46.924;7.114;2023-03-19T04:33:22;8.70;99.90
22532;DHT22;11432;46.924;7.114;2023-03-19T04:35:48;8.70;99.90
22532;DHT22;11432;46.924;7.114;2023-03-19T04:38:14;8.70;99.90
22532;DHT22;11432;46.924;7.114;2023-03-19T04:40:40;8.80;99.90
22532;DHT22;11432;46.924;7.114;2023-03-19T04:43:05;8.70;99.90
22532;DHT22;11432;46.924;7.114;2023-03-19T04:45:31;8.80;99.90
22532;DHT22;11432;46.924;7.114;2023-03-19T04:47:57;8.80;99.90
22532;DHT22;11432;46.924;7.114;2023-03-19T04:50:23;8.80;99.90
22532;DHT22;11432;46.924;7.114;2023-03-19T04:52:48;8.80;99.90
22532;DHT22;11432;46.924;7.114;2023-03-19T04:55:14;8.80;99.90
22532;DHT22;11432;46.924;7.114;2023-03-19T04:57:39;8.70;99.90
22532;DHT22;11432;46.924;7.114;2023-03-19T05:00:05;8.70;99.90
22532;DHT22;11432;46.924;7.114;2023-03-19T05:02:31;8.60;99.90
22532;DHT22;11432;46.924;7.114;2023-03-19T05:04:57;8.60;99.90
22532;DHT22;11432;46.924;7.114;2023-03-19T05:07:22;8.60;99.90
22532;DHT22;11432;46.924;7.114;2023-03-19T05:09:48;8.60;99.90
22532;DHT22;11432;46.924;7.114;2023-03-19T05:12:14;8.60;99.90
22532;DHT22;11432;46.924;7.114;2023-03-19T05:14:40;8.60;99.90
22532;DHT22;11432;46.924;7.114;2023-03-19T05:17:05;8.60;99.90
22532;DHT22;11432;46.924;7.114;2023-03-19T05:19:31;8.60;99.90
22532;DHT22;11432;46.924;7.114;2023-03-19T05:21:58;8.60;99.90
22532;DHT22;11432;46.924;7.114;2023-03-19T05:24:24;8.60;99.90
22532;DHT22;11432;46.924;7.114;2023-03-19T05:26:50;8.60;99.90
22532;DHT22;11432;46.924;7.114;2023-03-19T05:29:15;8.60;99.90
22532;DHT22;11432;46.924;7.114;2023-03-19T05:31:41;8.60;99.90
22532;DHT22;11432;46.924;7.114;2023-03-19T05:34:07;8.60;99.90
22532;DHT22;11432;46.924;7.114;2023-03-19T05:36:33;8.60;99.90
22532;DHT22;11432;46.924;7.114;2023-03-19T05:38:59;8.60;99.90
22532;DHT22;11432;46.924;7.114;2023-03-19T05:41:25;8.60;99.90
22532;DHT22;11432;46.924;7.114;2023-03-19T05:43:51;8.60;99.90
22532;DHT22;11432;46.924;7.114;2023-03-19T05:46:16;8.70;99.90
22532;DHT22;11432;46.924;7.114;2023-03-19T05:48:42;8.70;99.90
22532;DHT22;11432;46.924;7.114;2023-03-19T05:51:07;8.70;99.90
22532;DHT22;11432;46.924;7.114;2023-03-19T05:53:33;8.70;99.90
22532;DHT22;11432;46.924;7.114;2023-03-19T05:55:59;8.80;99.90
22532;DHT22;11432;46.924;7.114;2023-03-19T05:58:25;8.70;99.90
22532;DHT22;11432;46.924;7.114;2023-03-19T06:00:54;8.70;99.90
22532;DHT22;11432;46.924;7.114;2023-03-19T06:03:21;8.70;99.90
22532;DHT22;11432;46.924;7.114;2023-03-19T06:05:49;8.80;99.90
22532;DHT22;11432;46.924;7.114;2023-03-19T06:08:16;8.70;99.90
22532;DHT22;11432;46.924;7.114;2023-03-19T06:10:41;8.70;99.90
22532;DHT22;11432;46.924;7.114;2023-03-19T06:13:07;8.80;99.90
22532;DHT22;11432;46.924;7.114;2023-03-19T06:15:32;8.80;99.90
22532;DHT22;11432;46.924;7.114;2023-03-19T06:17:58;8.80;99.90
22532;DHT22;11432;46.924;7.114;2023-03-19T06:20:24;8.70;99.90
22532;DHT22;11432;46.924;7.114;2023-03-19T06:22:50;8.80;99.90
22532;DHT22;11432;46.924;7.114;2023-03-19T06:25:16;8.80;99.90
22532;DHT22;11432;46.924;7.114;2023-03-19T06:27:42;8.80;99.90
22532;DHT22;11432;46.924;7.114;2023-03-19T06:30:08;8.80;99.90
22532;DHT22;11432;46.924;7.114;2023-03-19T06:32:34;8.80;99.90
22532;DHT22;11432;46.924;7.114;2023-03-19T06:35:00;8.80;99.90
22532;DHT22;11432;46.924;7.114;2023-03-19T06:37:26;8.70;99.90
22532;DHT22;11432;46.924;7.114;2023-03-19T06:39:52;8.80;99.90
22532;DHT22;11432;46.924;7.114;2023-03-19T06:42:20;8.80;99.90
22532;DHT22;11432;46.924;7.114;2023-03-19T06:44:46;8.80;99.90
22532;DHT22;11432;46.924;7.114;2023-03-19T06:47:12;8.80;99.90
22532;DHT22;11432;46.924;7.114;2023-03-19T06:49:38;8.80;99.90
22532;DHT22;11432;46.924;7.114;2023-03-19T06:52:04;8.80;99.90
22532;DHT22;11432;46.924;7.114;2023-03-19T06:54:30;8.80;99.90
22532;DHT22;11432;46.924;7.114;2023-03-19T06:56:56;8.90;99.90
22532;DHT22;11432;46.924;7.114;2023-03-19T06:59:22;8.90;99.90
22532;DHT22;11432;46.924;7.114;2023-03-19T07:01:47;9.00;99.90
22532;DHT22;11432;46.924;7.114;2023-03-19T07:04:13;9.00;99.90
22532;DHT22;11432;46.924;7.114;2023-03-19T07:06:38;9.40;99.90
22532;DHT22;11432;46.924;7.114;2023-03-19T07:09:04;9.50;99.90
22532;DHT22;11432;46.924;7.114;2023-03-19T07:11:30;9.40;99.90
22532;DHT22;11432;46.924;7.114;2023-03-19T07:13:56;9.40;99.90
22532;DHT22;11432;46.924;7.114;2023-03-19T07:16:22;9.40;99.90
22532;DHT22;11432;46.924;7.114;2023-03-19T07:18:47;9.50;99.90
22532;DHT22;11432;46.924;7.114;2023-03-19T07:21:13;9.40;99.90
22532;DHT22;11432;46.924;7.114;2023-03-19T07:23:38;9.50;99.90
22532;DHT22;11432;46.924;7.114;2023-03-19T07:26:04;9.40;99.90
22532;DHT22;11432;46.924;7.114;2023-03-19T07:28:30;9.50;99.90
22532;DHT22;11432;46.924;7.114;2023-03-19T07:30:56;9.50;99.90
22532;DHT22;11432;46.924;7.114;2023-03-19T07:33:21;9.70;99.90
22532;DHT22;11432;46.924;7.114;2023-03-19T07:35:47;9.70;99.90
22532;DHT22;11432;46.924;7.114;2023-03-19T07:38:13;9.70;99.90
22532;DHT22;11432;46.924;7.114;2023-03-19T07:40:39;9.70;99.90
22532;DHT22;11432;46.924;7.114;2023-03-19T07:43:05;9.80;99.90
22532;DHT22;11432;46.924;7.114;2023-03-19T07:45:31;9.90;99.90
22532;DHT22;11432;46.924;7.114;2023-03-19T07:47:56;9.90;99.90
22532;DHT22;11432;46.924;7.114;2023-03-19T07:50:22;10.00;99.90
22532;DHT22;11432;46.924;7.114;2023-03-19T07:52:48;10.00;99.90
22532;DHT22;11432;46.924;7.114;2023-03-19T07:55:16;10.00;99.90
22532;DHT22;11432;46.924;7.114;2023-03-19T07:57:42;10.00;99.90
22532;DHT22;11432;46.924;7.114;2023-03-19T08:00:08;10.00;1.00
22532;DHT22;11432;46.924;7.114;2023-03-19T08:02:35;10.00;98.40
22532;DHT22;11432;46.924;7.114;2023-03-19T08:05:00;9.90;99.90
22532;DHT22;11432;46.924;7.114;2023-03-19T08:07:29;9.90;99.90
22532;DHT22;11432;46.924;7.114;2023-03-19T08:09:55;9.90;99.90
22532;DHT22;11432;46.924;7.114;2023-03-19T08:12:22;9.90;99.90
22532;DHT22;11432;46.924;7.114;2023-03-19T08:14:48;10.10;99.90
22532;DHT22;11432;46.924;7.114;2023-03-19T08:17:14;10.10;99.90
22532;DHT22;11432;46.924;7.114;2023-03-19T08:19:40;10.00;99.90
22532;DHT22;11432;46.924;7.114;2023-03-19T08:22:06;10.10;99.90
22532;DHT22;11432;46.924;7.114;2023-03-19T08:24:31;10.10;99.90
22532;DHT22;11432;46.924;7.114;2023-03-19T08:26:57;10.10;99.90
22532;DHT22;11432;46.924;7.114;2023-03-19T08:29:23;10.20;99.90
22532;DHT22;11432;46.924;7.114;2023-03-19T08:31:50;10.30;99.90
22532;DHT22;11432;46.924;7.114;2023-03-19T08:34:16;10.10;99.90
22532;DHT22;11432;46.924;7.114;2023-03-19T08:36:41;10.00;99.90
22532;DHT22;11432;46.924;7.114;2023-03-19T08:39:07;10.00;99.90
22532;DHT22;11432;46.924;7.114;2023-03-19T08:41:33;10.00;99.90
22532;DHT22;11432;46.924;7.114;2023-03-19T08:43:58;10.00;99.90
22532;DHT22;11432;46.924;7.114;2023-03-19T08:46:24;10.00;1.00
22532;DHT22;11432;46.924;7.114;2023-03-19T08:48:52;10.10;1.00
22532;DHT22;11432;46.924;7.114;2023-03-19T08:51:18;10.20;1.00
22532;DHT22;11432;46.924;7.114;2023-03-19T08:53:43;10.30;1.00
22532;DHT22;11432;46.924;7.114;2023-03-19T08:56:09;10.50;1.00
22532;DHT22;11432;46.924;7.114;2023-03-19T08:58:35;10.60;1.00
22532;DHT22;11432;46.924;7.114;2023-03-19T09:01:05;10.70;1.00
22532;DHT22;11432;46.924;7.114;2023-03-19T09:03:31;10.70;1.00
22532;DHT22;11432;46.924;7.114;2023-03-19T09:06:01;10.80;1.00
22532;DHT22;11432;46.924;7.114;2023-03-19T09:08:27;10.90;1.00
22532;DHT22;11432;46.924;7.114;2023-03-19T09:10:54;11.00;1.00
22532;DHT22;11432;46.924;7.114;2023-03-19T09:13:20;11.00;1.00
22532;DHT22;11432;46.924;7.114;2023-03-19T09:15:46;11.10;1.00
22532;DHT22;11432;46.924;7.114;2023-03-19T09:18:12;11.00;1.00
22532;DHT22;11432;46.924;7.114;2023-03-19T09:20:37;11.00;1.00
22532;DHT22;11432;46.924;7.114;2023-03-19T09:23:03;11.00;1.00
22532;DHT22;11432;46.924;7.114;2023-03-19T09:25:28;11.10;1.00
22532;DHT22;11432;46.924;7.114;2023-03-19T09:27:54;11.00;99.90
22532;DHT22;11432;46.924;7.114;2023-03-19T09:30:20;11.00;99.90
22532;DHT22;11432;46.924;7.114;2023-03-19T09:32:46;11.00;99.90
22532;DHT22;11432;46.924;7.114;2023-03-19T09:35:12;11.10;99.90
22532;DHT22;11432;46.924;7.114;2023-03-19T09:37:37;11.00;99.90
22532;DHT22;11432;46.924;7.114;2023-03-19T09:40:04;10.80;99.90
22532;DHT22;11432;46.924;7.114;2023-03-19T09:42:44;10.70;99.90
22532;DHT22;11432;46.924;7.114;2023-03-19T09:45:17;10.60;99.90
22532;DHT22;11432;46.924;7.114;2023-03-19T09:47:45;10.70;99.90
22532;DHT22;11432;46.924;7.114;2023-03-19T09:50:23;10.70;99.90
22532;DHT22;11432;46.924;7.114;2023-03-19T09:52:59;10.90;99.90
22532;DHT22;11432;46.924;7.114;2023-03-19T09:55:47;11.00;99.90
22532;DHT22;11432;46.924;7.114;2023-03-19T09:58:17;11.10;99.90
22532;DHT22;11432;46.924;7.114;2023-03-19T10:00:47;11.00;1.00
22532;DHT22;11432;46.924;7.114;2023-03-19T10:03:50;11.00;1.00
22532;DHT22;11432;46.924;7.114;2023-03-19T10:06:30;11.20;1.00
22532;DHT22;11432;46.924;7.114;2023-03-19T10:09:20;11.20;1.00
22532;DHT22;11432;46.924;7.114;2023-03-19T10:18:02;11.60;46.60
22532;DHT22;11432;46.924;7.114;2023-03-19T10:26:19;11.60;99.90
22532;DHT22;11432;46.924;7.114;2023-03-19T10:29:28;11.50;84.90
22532;DHT22;11432;46.924;7.114;2023-03-19T10:31:42;11.40;99.90
22532;DHT22;11432;46.924;7.114;2023-03-19T10:34:28;11.40;1.00
22532;DHT22;11432;46.924;7.114;2023-03-19T10:37:05;11.40;99.90
22532;DHT22;11432;46.924;7.114;2023-03-19T10:39:41;11.40;99.90
22532;DHT22;11432;46.924;7.114;2023-03-19T10:42:17;11.40;99.90
22532;DHT22;11432;46.924;7.114;2023-03-19T10:44:49;11.40;99.90
22532;DHT22;11432;46.924;7.114;2023-03-19T10:47:16;11.40;99.90
22532;DHT22;11432;46.924;7.114;2023-03-19T10:49:44;11.40;99.90
22532;DHT22;11432;46.924;7.114;2023-03-19T10:52:32;11.40;99.90
22532;DHT22;11432;46.924;7.114;2023-03-19T10:55:14;11.50;99.90
22532;DHT22;11432;46.924;7.114;2023-03-19T10:57:42;11.50;99.90
22532;DHT22;11432;46.924;7.114;2023-03-19T11:00:22;11.60;99.90
22532;DHT22;11432;46.924;7.114;2023-03-19T11:02:54;11.50;99.90
22532;DHT22;11432;46.924;7.114;2023-03-19T11:08:04;11.50;99.90
22532;DHT22;11432;46.924;7.114;2023-03-19T11:10:35;11.50;99.90
22532;DHT22;11432;46.924;7.114;2023-03-19T11:15:59;11.70;99.90
22532;DHT22;11432;46.924;7.114;2023-03-19T11:18:46;11.70;99.90
22532;DHT22;11432;46.924;7.114;2023-03-19T11:21:28;11.80;99.90
22532;DHT22;11432;46.924;7.114;2023-03-19T11:24:02;11.90;99.90
22532;DHT22;11432;46.924;7.114;2023-03-19T11:26:28;11.90;99.90
22532;DHT22;11432;46.924;7.114;2023-03-19T11:29:01;11.90;99.90
22532;DHT22;11432;46.924;7.114;2023-03-19T11:31:36;12.00;67.70
22532;DHT22;11432;46.924;7.114;2023-03-19T12:00:48;12.00;43.90
22532;DHT22;11432;46.924;7.114;2023-03-19T12:03:25;11.80;99.90
22532;DHT22;11432;46.924;7.114;2023-03-19T12:06:09;11.80;1.00
22532;DHT22;11432;46.924;7.114;2023-03-19T12:08:44;11.70;1.00
22532;DHT22;11432;46.924;7.114;2023-03-19T12:14:12;11.70;1.00
22532;DHT22;11432;46.924;7.114;2023-03-19T12:19:54;11.60;1.00
22532;DHT22;11432;46.924;7.114;2023-03-19T12:25:27;11.50;1.00
22532;DHT22;11432;46.924;7.114;2023-03-19T12:28:09;11.40;1.00
22532;DHT22;11432;46.924;7.114;2023-03-19T12:30:59;11.40;1.00
22532;DHT22;11432;46.924;7.114;2023-03-19T12:36:14;11.50;1.00
22532;DHT22;11432;46.924;7.114;2023-03-19T12:38:53;11.40;1.00
22532;DHT22;11432;46.924;7.114;2023-03-19T12:41:23;11.50;1.00
22532;DHT22;11432;46.924;7.114;2023-03-19T12:46:48;11.40;1.00
22532;DHT22;11432;46.924;7.114;2023-03-19T12:49:25;11.40;19.50
22532;DHT22;11432;46.924;7.114;2023-03-19T12:52:18;11.50;1.00
22532;DHT22;11432;46.924;7.114;2023-03-19T12:54:44;11.40;99.90
22532;DHT22;11432;46.924;7.114;2023-03-19T12:57:45;11.40;1.00
22532;DHT22;11432;46.924;7.114;2023-03-19T13:10:30;11.60;1.00
22532;DHT22;11432;46.924;7.114;2023-03-19T13:13:16;11.60;1.00
22532;DHT22;11432;46.924;7.114;2023-03-19T13:15:48;11.70;1.00
22532;DHT22;11432;46.924;7.114;2023-03-19T13:21:23;11.60;1.00
22532;DHT22;11432;46.924;7.114;2023-03-19T13:26:32;11.90;1.00
22532;DHT22;11432;46.924;7.114;2023-03-19T13:29:07;11.90;12.80
22532;DHT22;11432;46.924;7.114;2023-03-19T13:31:34;11.90;1.00
22532;DHT22;11432;46.924;7.114;2023-03-19T13:37:00;12.00;1.00
22532;DHT22;11432;46.924;7.114;2023-03-19T13:39:29;12.00;1.00
22532;DHT22;11432;46.924;7.114;2023-03-19T13:44:40;12.20;1.00
22532;DHT22;11432;46.924;7.114;2023-03-19T14:03:25;12.90;1.00
22532;DHT22;11432;46.924;7.114;2023-03-19T14:05:54;13.20;1.00
22532;DHT22;11432;46.924;7.114;2023-03-19T14:08:26;13.30;99.90
22532;DHT22;11432;46.924;7.114;2023-03-19T14:10:55;13.20;1.00
22532;DHT22;11432;46.924;7.114;2023-03-19T14:13:39;13.00;99.90
22532;DHT22;11432;46.924;7.114;2023-03-19T14:16:11;12.80;99.90
22532;DHT22;11432;46.924;7.114;2023-03-19T14:18:41;12.60;99.90
22532;DHT22;11432;46.924;7.114;2023-03-19T14:21:12;12.60;1.00
22532;DHT22;11432;46.924;7.114;2023-03-19T14:23:39;12.40;99.90
22532;DHT22;11432;46.924;7.114;2023-03-19T14:26:15;12.50;99.90
22532;DHT22;11432;46.924;7.114;2023-03-19T14:29:05;12.50;99.90
22532;DHT22;11432;46.924;7.114;2023-03-19T14:36:41;12.20;1.00
22532;DHT22;11432;46.924;7.114;2023-03-19T14:39:20;12.10;99.90
22532;DHT22;11432;46.924;7.114;2023-03-19T14:47:50;12.10;99.90
22532;DHT22;11432;46.924;7.114;2023-03-19T14:53:34;12.40;99.90
22532;DHT22;11432;46.924;7.114;2023-03-19T14:56:14;12.50;99.90
22532;DHT22;11432;46.924;7.114;2023-03-19T14:58:51;12.60;99.90
22532;DHT22;11432;46.924;7.114;2023-03-19T15:01:18;12.70;99.90
22532;DHT22;11432;46.924;7.114;2023-03-19T15:03:44;12.90;99.90
22532;DHT22;11432;46.924;7.114;2023-03-19T15:06:12;12.90;99.90
22532;DHT22;11432;46.924;7.114;2023-03-19T15:08:40;12.80;99.90
22532;DHT22;11432;46.924;7.114;2023-03-19T15:11:29;12.60;99.90
22532;DHT22;11432;46.924;7.114;2023-03-19T15:14:15;12.60;99.90
22532;DHT22;11432;46.924;7.114;2023-03-19T15:19:41;12.40;99.90
22532;DHT22;11432;46.924;7.114;2023-03-19T15:24:35;12.50;1.00
22532;DHT22;11432;46.924;7.114;2023-03-19T15:27:01;12.40;63.70
22532;DHT22;11432;46.924;7.114;2023-03-19T15:29:34;12.40;68.40
22532;DHT22;11432;46.924;7.114;2023-03-19T15:31:59;12.40;99.90
22532;DHT22;11432;46.924;7.114;2023-03-19T15:34:27;12.30;87.00
22532;DHT22;11432;46.924;7.114;2023-03-19T15:37:12;12.20;99.90
22532;DHT22;11432;46.924;7.114;2023-03-19T15:39:45;12.10;99.90
22532;DHT22;11432;46.924;7.114;2023-03-19T15:42:13;12.00;1.00
22532;DHT22;11432;46.924;7.114;2023-03-19T15:44:48;11.50;99.90
22532;DHT22;11432;46.924;7.114;2023-03-19T15:47:24;10.90;99.90
22532;DHT22;11432;46.924;7.114;2023-03-19T15:50:13;10.70;1.00
22532;DHT22;11432;46.924;7.114;2023-03-19T15:52:41;10.50;1.00
22532;DHT22;11432;46.924;7.114;2023-03-19T15:55:08;10.30;57.80
22532;DHT22;11432;46.924;7.114;2023-03-19T15:57:36;10.30;99.90
22532;DHT22;11432;46.924;7.114;2023-03-19T16:00:03;10.20;99.90
22532;DHT22;11432;46.924;7.114;2023-03-19T16:02:31;10.30;99.90
22532;DHT22;11432;46.924;7.114;2023-03-19T16:04:59;10.20;99.90
22532;DHT22;11432;46.924;7.114;2023-03-19T16:09:58;10.20;1.00
22532;DHT22;11432;46.924;7.114;2023-03-19T16:12:39;10.30;1.00
22532;DHT22;11432;46.924;7.114;2023-03-19T16:17:47;10.50;1.00
22532;DHT22;11432;46.924;7.114;2023-03-19T16:20:16;10.60;1.00
22532;DHT22;11432;46.924;7.114;2023-03-19T16:22:48;10.60;1.00
22532;DHT22;11432;46.924;7.114;2023-03-19T16:25:17;10.70;1.00
22532;DHT22;11432;46.924;7.114;2023-03-19T16:27:44;10.70;1.00
22532;DHT22;11432;46.924;7.114;2023-03-19T16:30:23;10.60;1.00
22532;DHT22;11432;46.924;7.114;2023-03-19T16:33:02;10.40;1.00
22532;DHT22;11432;46.924;7.114;2023-03-19T16:35:31;10.40;1.00
22532;DHT22;11432;46.924;7.114;2023-03-19T16:38:13;10.30;1.00
22532;DHT22;11432;46.924;7.114;2023-03-19T16:40:46;10.20;99.90
22532;DHT22;11432;46.924;7.114;2023-03-19T16:43:21;10.20;99.90
22532;DHT22;11432;46.924;7.114;2023-03-19T16:45:51;10.30;99.90
22532;DHT22;11432;46.924;7.114;2023-03-19T16:48:27;10.60;99.90
22532;DHT22;11432;46.924;7.114;2023-03-19T16:50:53;11.20;1.00
22532;DHT22;11432;46.924;7.114;2023-03-19T16:53:28;11.50;1.00
22532;DHT22;11432;46.924;7.114;2023-03-19T16:55:56;11.70;1.00
22532;DHT22;11432;46.924;7.114;2023-03-19T16:58:35;11.40;1.00
22532;DHT22;11432;46.924;7.114;2023-03-19T17:01:03;11.40;1.00
22532;DHT22;11432;46.924;7.114;2023-03-19T17:03:30;11.60;1.00
22532;DHT22;11432;46.924;7.114;2023-03-19T17:05:56;11.90;1.00
22532;DHT22;11432;46.924;7.114;2023-03-19T17:08:21;12.40;1.00
22532;DHT22;11432;46.924;7.114;2023-03-19T17:10:49;12.00;1.00
22532;DHT22;11432;46.924;7.114;2023-03-19T17:13:22;11.60;1.00
22532;DHT22;11432;46.924;7.114;2023-03-19T17:15:52;11.10;1.00
22532;DHT22;11432;46.924;7.114;2023-03-19T17:18:24;10.80;1.00
22532;DHT22;11432;46.924;7.114;2023-03-19T17:20:57;10.60;1.00
22532;DHT22;11432;46.924;7.114;2023-03-19T17:23:25;10.60;1.00
22532;DHT22;11432;46.924;7.114;2023-03-19T17:25:54;10.40;19.30
22532;DHT22;11432;46.924;7.114;2023-03-19T17:28:21;10.30;82.60
22532;DHT22;11432;46.924;7.114;2023-03-19T17:30:47;10.30;99.90
22532;DHT22;11432;46.924;7.114;2023-03-19T17:33:26;10.30;99.90
22532;DHT22;11432;46.924;7.114;2023-03-19T17:35:53;10.30;67.00
22532;DHT22;11432;46.924;7.114;2023-03-19T17:38:20;10.30;99.90
22532;DHT22;11432;46.924;7.114;2023-03-19T17:40:47;10.20;99.90
22532;DHT22;11432;46.924;7.114;2023-03-19T17:43:13;10.20;99.90
22532;DHT22;11432;46.924;7.114;2023-03-19T17:45:41;10.20;99.90
22532;DHT22;11432;46.924;7.114;2023-03-19T17:48:16;10.20;99.90
22532;DHT22;11432;46.924;7.114;2023-03-19T17:50:43;10.30;99.90
22532;DHT22;11432;46.924;7.114;2023-03-19T17:53:10;10.20;99.90
22532;DHT22;11432;46.924;7.114;2023-03-19T17:55:36;10.20;99.90